createdAt,value
2019-02-26T00:02:10.239Z,85.36
2019-02-26T00:05:19.409Z,84.99
2019-02-26T00:08:26.719Z,85.25
2019-02-26T00:11:35.699Z,86.11
2019-02-26T00:14:43.069Z,86.12
2019-02-26T00:17:50.871Z,85.81
2019-02-26T00:21:00.305Z,85.76
2019-02-26T00:24:09.920Z,86.25
2019-02-26T00:27:16.045Z,86.35
2019-02-26T00:30:22.812Z,86.37
2019-02-26T00:33:29.723Z,85.81
2019-02-26T00:36:38.187Z,86.45
2019-02-26T00:39:45.361Z,86.64
2019-02-26T00:42:56.488Z,86.21
2019-02-26T00:46:03.071Z,86.21
2019-02-26T00:49:09.177Z,86.20
2019-02-26T00:52:15.781Z,85.96
2019-02-26T00:55:25.231Z,86.99
2019-02-26T00:58:32.076Z,86.29
2019-02-26T01:01:39.192Z,86.63
2019-02-26T01:04:46.726Z,86.43
2019-02-26T01:07:56.374Z,86.27
2019-02-26T01:11:03.917Z,86.62
2019-02-26T01:14:11.346Z,86.73
2019-02-26T01:17:18.819Z,85.85
2019-02-26T01:20:27.426Z,87.24
2019-02-26T01:23:34.058Z,87.71
2019-02-26T01:26:42.671Z,87.42
2019-02-26T01:29:51.229Z,87.47
2019-02-26T01:32:59.618Z,87.61
2019-02-26T01:36:05.151Z,87.92
2019-02-26T01:39:13.884Z,87.45
2019-02-26T01:42:24.262Z,87.41
2019-02-26T01:45:30.487Z,87.30
2019-02-26T01:48:39.525Z,86.98
2019-02-26T01:51:47.944Z,88.12
2019-02-26T01:54:55.833Z,87.65
2019-02-26T01:58:02.815Z,88.14
2019-02-26T02:01:09.980Z,88.43
2019-02-26T02:04:19.511Z,88.03
2019-02-26T02:07:27.794Z,87.78
2019-02-26T02:10:34.027Z,87.98
2019-02-26T02:13:41.258Z,88.26
2019-02-26T02:16:49.389Z,87.61
2019-02-26T02:19:55.702Z,87.42
2019-02-26T02:23:02.673Z,87.58
2019-02-26T02:26:11.670Z,87.46
2019-02-26T02:29:19.161Z,87.10
2019-02-26T02:32:29.535Z,87.17
2019-02-26T02:35:35.568Z,86.61
2019-02-26T02:38:41.954Z,87.16
2019-02-26T02:41:51.642Z,86.55
2019-02-26T02:44:57.064Z,86.76
2019-02-26T02:48:06.223Z,87.55
2019-02-26T02:51:13.792Z,87.76
2019-02-26T02:54:21.031Z,87.29
2019-02-26T02:57:30.041Z,88.05
2019-02-26T03:00:36.683Z,88.51
2019-02-26T03:03:45.241Z,88.16
2019-02-26T03:06:53.014Z,87.96
2019-02-26T03:10:03.934Z,87.54
2019-02-26T03:13:14.364Z,87.01
2019-02-26T03:16:23.964Z,86.62
2019-02-26T03:19:32.686Z,86.84
2019-02-26T03:22:41.514Z,86.52
2019-02-26T03:25:47.860Z,87.09
2019-02-26T03:28:55.369Z,87.03
2019-02-26T03:32:01.677Z,87.55
2019-02-26T03:35:10.261Z,87.65
2019-02-26T03:38:18.118Z,88.04
2019-02-26T03:41:28.319Z,88.40
2019-02-26T03:44:34.356Z,88.56
2019-02-26T03:47:40.942Z,88.73
2019-02-26T03:50:47.350Z,89.00
2019-02-26T03:53:54.366Z,88.75
2019-02-26T03:57:01.056Z,88.49
2019-02-26T04:00:09.252Z,87.86
2019-02-26T04:03:17.408Z,87.65
2019-02-26T04:06:24.088Z,87.70
2019-02-26T04:09:30.844Z,88.60
2019-02-26T04:12:41.897Z,88.06
2019-02-26T04:15:46.464Z,87.85
2019-02-26T04:18:52.893Z,88.34
2019-02-26T04:22:30.482Z,88.42
2019-02-26T04:25:43.232Z,88.87
2019-02-26T04:28:57.827Z,88.43
2019-02-26T04:32:53.930Z,88.41
2019-02-26T04:36:22.326Z,88.51
2019-02-26T04:39:51.767Z,88.19
2019-02-26T04:43:25.566Z,87.56
2019-02-26T04:46:57.165Z,86.95
2019-02-26T04:50:06.257Z,86.98
2019-02-26T04:53:11.866Z,87.20
2019-02-26T04:56:18.136Z,87.33
2019-02-26T04:59:24.621Z,87.65
2019-02-26T05:02:31.784Z,88.88
2019-02-26T05:05:38.472Z,88.44
2019-02-26T05:08:45.154Z,88.30
2019-02-26T05:11:51.570Z,88.16
2019-02-26T05:14:57.864Z,87.98
2019-02-26T05:18:04.363Z,88.21
2019-02-26T05:21:13.033Z,87.95
2019-02-26T05:24:21.921Z,87.65
2019-02-26T05:27:28.286Z,87.59
2019-02-26T05:30:34.888Z,87.62
2019-02-26T05:33:41.759Z,88.06
2019-02-26T05:36:48.129Z,88.17
2019-02-26T05:39:54.858Z,87.86
2019-02-26T05:43:03.884Z,87.90
2019-02-26T05:46:09.246Z,87.52
2019-02-26T05:49:19.115Z,87.05
2019-02-26T05:52:27.093Z,86.80
2019-02-26T05:55:32.438Z,86.90
2019-02-26T05:58:39.467Z,86.95
2019-02-26T06:01:49.482Z,87.16
2019-02-26T06:04:55.708Z,86.96
2019-02-26T06:08:01.982Z,86.72
2019-02-26T06:11:08.738Z,86.46
2019-02-26T06:14:15.346Z,87.70
2019-02-26T06:17:21.654Z,87.88
2019-02-26T06:20:29.260Z,87.02
2019-02-26T06:23:37.328Z,87.24
2019-02-26T06:26:45.521Z,86.68
2019-02-26T06:29:55.050Z,86.52
2019-02-26T06:33:04.125Z,86.57
2019-02-26T06:36:09.769Z,85.77
2019-02-26T06:39:20.265Z,85.74
2019-02-26T06:42:24.326Z,85.43
2019-02-26T06:45:30.839Z,85.38
2019-02-26T06:48:37.451Z,84.85
2019-02-26T06:51:45.643Z,84.82
2019-02-26T06:54:57.311Z,84.33
2019-02-26T06:58:22.224Z,84.21
2019-02-26T07:01:32.328Z,84.36
2019-02-26T07:04:39.165Z,83.84
2019-02-26T07:07:46.004Z,84.36
2019-02-26T07:10:52.706Z,84.46
2019-02-26T07:14:01.468Z,83.72
2019-02-26T07:17:09.840Z,83.09
2019-02-26T07:20:16.776Z,82.94
2019-02-26T07:23:23.506Z,82.30
2019-02-26T07:26:29.927Z,82.35
2019-02-26T07:29:39.464Z,82.56
2019-02-26T07:32:47.632Z,83.14
2019-02-26T07:35:55.169Z,82.61
2019-02-26T07:39:02.123Z,82.05
2019-02-26T07:42:11.603Z,80.95
2019-02-26T07:45:20.359Z,80.68
2019-02-26T07:48:28.921Z,80.76
2019-02-26T07:51:38.191Z,79.90
2019-02-26T07:54:45.454Z,79.01
2019-02-26T07:57:53.384Z,78.43
2019-02-26T08:01:00.018Z,75.72
2019-02-26T08:04:09.404Z,73.42
2019-02-26T08:07:15.064Z,74.06
2019-02-26T08:10:22.040Z,73.78
2019-02-26T08:13:31.582Z,73.37
2019-02-26T08:16:38.085Z,72.75
2019-02-26T08:19:47.285Z,72.85
2019-02-26T08:22:55.982Z,72.79
2019-02-26T08:26:02.811Z,71.44
2019-02-26T08:29:12.449Z,70.73
2019-02-26T08:32:20.996Z,69.57
2019-02-26T08:35:27.364Z,68.30
2019-02-26T08:38:33.934Z,67.89
2019-02-26T08:41:41.088Z,63.38
2019-02-26T08:44:48.681Z,63.54
2019-02-26T08:47:56.155Z,62.45
2019-02-26T08:51:06.196Z,59.80
2019-02-26T08:54:20.607Z,54.66
2019-02-26T08:57:21.981Z,57.58
2019-02-26T09:00:28.778Z,58.79
2019-02-26T09:03:40.790Z,61.50
2019-02-26T09:06:44.205Z,55.81
2019-02-26T09:09:53.055Z,55.55
2019-02-26T09:13:00.944Z,58.70
2019-02-26T09:16:08.311Z,57.09
2019-02-26T09:19:15.546Z,51.24
2019-02-26T09:22:23.535Z,51.75
2019-02-26T09:25:31.479Z,52.30
2019-02-26T09:28:39.368Z,52.22
2019-02-26T09:31:46.226Z,48.58
2019-02-26T09:34:54.468Z,44.07
2019-02-26T09:38:01.149Z,43.12
2019-02-26T09:41:10.013Z,33.43
2019-02-26T09:44:16.393Z,38.93
2019-02-26T09:47:33.457Z,36.12
2019-02-26T09:50:41.922Z,30.34
2019-02-26T09:53:50.077Z,29.07
2019-02-26T09:56:56.830Z,27.26
2019-02-26T10:00:03.497Z,24.56
2019-02-26T10:03:13.209Z,25.00
2019-02-26T10:06:21.630Z,25.87
2019-02-26T10:09:28.014Z,24.91
2019-02-26T10:12:36.969Z,23.78
2019-02-26T10:15:44.840Z,23.34
2019-02-26T10:18:52.389Z,32.44
2019-02-26T10:22:00.325Z,30.96
2019-02-26T10:25:08.137Z,29.81
2019-02-26T10:28:17.224Z,29.77
2019-02-26T10:31:25.046Z,26.75
2019-02-26T10:34:32.315Z,28.08
2019-02-26T10:37:51.298Z,21.68
2019-02-26T10:40:59.696Z,27.32
2019-02-26T10:44:06.462Z,27.43
2019-02-26T10:47:13.242Z,29.68
2019-02-26T10:50:22.369Z,29.12
2019-02-26T10:53:28.505Z,24.27
2019-02-26T10:56:39.324Z,23.22
2019-02-26T10:59:44.996Z,21.34
2019-02-26T11:02:54.116Z,20.95
2019-02-26T11:06:00.043Z,17.75
2019-02-26T11:09:14.415Z,20.69
2019-02-26T11:12:22.190Z,20.67
2019-02-26T11:15:31.006Z,23.23
2019-02-26T11:18:39.351Z,19.62
2019-02-26T11:21:44.988Z,17.81
2019-02-26T11:24:53.425Z,17.22
2019-02-26T11:28:02.298Z,24.22
2019-02-26T11:31:12.170Z,19.53
2019-02-26T11:34:19.110Z,21.87
2019-02-26T11:37:27.166Z,19.41
2019-02-26T11:40:34.922Z,18.61
2019-02-26T11:43:42.263Z,22.05
2019-02-26T11:46:51.300Z,22.55
2019-02-26T11:49:59.521Z,17.92
2019-02-26T11:53:09.345Z,20.52
2019-02-26T11:56:15.861Z,18.62
2019-02-26T11:59:22.661Z,18.47
2019-02-26T12:02:33.358Z,19.57
2019-02-26T12:05:41.261Z,19.81
2019-02-26T12:08:47.357Z,16.15
2019-02-26T12:11:56.058Z,15.09
2019-02-26T12:15:04.848Z,15.61
2019-02-26T12:18:14.863Z,16.58
2019-02-26T12:21:21.730Z,19.56
2019-02-26T12:24:28.997Z,21.83
2019-02-26T12:27:38.367Z,18.16
2019-02-26T12:30:46.638Z,16.37
2019-02-26T12:33:53.346Z,18.53
2019-02-26T12:37:02.708Z,14.13
2019-02-26T12:40:10.403Z,13.40
2019-02-26T12:43:19.124Z,15.36
2019-02-26T12:46:34.544Z,14.16
2019-02-26T12:49:49.591Z,14.25
2019-02-26T12:52:57.074Z,15.67
2019-02-26T12:56:08.265Z,15.16
2019-02-26T12:59:12.597Z,14.38
2019-02-26T13:02:20.923Z,15.78
2019-02-26T13:05:26.979Z,16.92
2019-02-26T13:08:33.589Z,17.54
2019-02-26T13:12:00.151Z,15.24
2019-02-26T13:14:50.423Z,14.48
2019-02-26T13:17:57.877Z,15.07
2019-02-26T13:21:09.301Z,15.89
2019-02-26T13:24:17.149Z,14.44
2019-02-26T13:27:22.355Z,15.63
2019-02-26T13:30:29.397Z,15.07
2019-02-26T13:33:38.530Z,14.86
2019-02-26T13:36:48.996Z,16.29
2019-02-26T13:39:53.156Z,17.46
2019-02-26T13:46:07.168Z,18.25
2019-02-26T13:49:15.655Z,17.28
2019-02-26T13:52:21.879Z,19.15
2019-02-26T13:55:28.518Z,19.72
2019-02-26T13:58:35.205Z,20.77
2019-02-26T14:01:43.146Z,18.94
2019-02-26T14:04:49.846Z,19.64
2019-02-26T14:07:56.298Z,18.71
2019-02-26T14:11:03.097Z,20.89
2019-02-26T14:14:09.821Z,21.27
2019-02-26T14:17:16.533Z,18.35
2019-02-26T14:20:23.172Z,19.50
2019-02-26T14:23:34.913Z,18.93
2019-02-26T14:26:38.303Z,21.08
2019-02-26T14:29:45.651Z,20.01
2019-02-26T14:32:52.349Z,20.61
2019-02-26T14:35:58.643Z,20.16
2019-02-26T14:39:06.462Z,20.04
2019-02-26T14:42:25.865Z,20.87
2019-02-26T14:45:32.644Z,21.58
2019-02-26T14:48:39.254Z,21.91
2019-02-26T14:51:46.317Z,23.42
2019-02-26T14:54:52.765Z,23.09
2019-02-26T14:57:59.492Z,24.42
2019-02-26T15:01:06.391Z,22.46
2019-02-26T15:04:13.282Z,23.36
2019-02-26T15:07:19.862Z,23.08
2019-02-26T15:10:26.816Z,21.64
2019-02-26T15:13:34.641Z,20.91
2019-02-26T15:16:41.528Z,21.06
2019-02-26T15:19:51.275Z,22.98
2019-02-26T15:22:56.405Z,21.63
2019-02-26T15:26:02.972Z,20.82
2019-02-26T15:29:09.333Z,20.93
2019-02-26T15:32:16.239Z,21.18
2019-02-26T15:35:23.197Z,22.69
2019-02-26T15:38:29.969Z,24.09
2019-02-26T15:41:37.300Z,22.81
2019-02-26T15:44:43.911Z,29.01
2019-02-26T15:47:51.575Z,29.42
2019-02-26T15:50:57.927Z,29.70
2019-02-26T15:54:04.492Z,32.91
2019-02-26T15:57:11.378Z,33.07
2019-02-26T16:00:21.955Z,34.14
2019-02-26T16:03:29.740Z,34.95
2019-02-26T16:06:37.802Z,36.50
2019-02-26T16:09:44.469Z,36.76
2019-02-26T16:12:52.671Z,36.46
2019-02-26T16:15:59.531Z,35.18
2019-02-26T16:19:06.483Z,36.96
2019-02-26T16:22:13.432Z,38.38
2019-02-26T16:25:20.929Z,41.98
2019-02-26T16:28:28.009Z,43.04
2019-02-26T16:31:36.747Z,45.12
2019-02-26T16:34:43.885Z,46.08
2019-02-26T16:37:51.245Z,49.07
2019-02-26T16:40:59.260Z,50.22
2019-02-26T16:44:06.061Z,49.41
2019-02-26T16:47:14.654Z,50.28
2019-02-26T16:50:22.638Z,50.98
2019-02-26T16:53:33.468Z,51.84
2019-02-26T16:56:40.554Z,52.74
2019-02-26T16:59:47.358Z,54.16
2019-02-26T17:02:54.464Z,55.11
2019-02-26T17:06:02.935Z,54.90
2019-02-26T17:09:09.678Z,54.96
2019-02-26T17:12:17.598Z,56.47
2019-02-26T17:15:28.553Z,56.50
2019-02-26T17:18:35.152Z,56.75
2019-02-26T17:21:42.477Z,56.39
2019-02-26T17:24:49.350Z,56.58
2019-02-26T17:27:56.184Z,57.34
2019-02-26T17:31:03.062Z,57.16
2019-02-26T17:34:13.650Z,57.37
2019-02-26T17:37:20.682Z,57.71
2019-02-26T17:40:27.480Z,57.40
2019-02-26T17:43:35.369Z,58.16
2019-02-26T17:46:41.642Z,58.80
2019-02-26T17:49:48.527Z,58.57
2019-02-26T17:52:55.556Z,59.12
2019-02-26T17:56:02.518Z,60.40
2019-02-26T17:59:09.105Z,61.23
2019-02-26T18:02:16.396Z,61.21
2019-02-26T18:05:23.058Z,60.46
2019-02-26T18:08:29.711Z,61.11
2019-02-26T18:11:37.564Z,62.00
2019-02-26T18:14:44.635Z,61.93
2019-02-26T18:17:51.220Z,62.93
2019-02-26T18:20:57.791Z,62.92
2019-02-26T18:24:04.738Z,62.94
2019-02-26T18:27:12.845Z,63.53
2019-02-26T18:30:21.691Z,63.57
2019-02-26T18:33:28.580Z,63.15
2019-02-26T18:36:36.863Z,62.80
2019-02-26T18:39:46.802Z,65.31
2019-02-26T18:42:54.043Z,65.36
2019-02-26T18:46:01.318Z,66.04
2019-02-26T18:49:08.537Z,66.79
2019-02-26T18:52:15.681Z,65.91
2019-02-26T18:55:22.356Z,65.97
2019-02-26T18:58:31.439Z,66.18
2019-02-26T19:01:38.900Z,64.94
2019-02-26T19:04:48.676Z,64.55
2019-02-26T19:07:56.446Z,65.65
2019-02-26T19:11:02.970Z,68.45
2019-02-26T19:14:10.200Z,67.09
2019-02-26T19:17:16.872Z,67.07
2019-02-26T19:20:25.902Z,66.84
2019-02-26T19:23:32.943Z,67.12
2019-02-26T19:26:39.566Z,69.01
2019-02-26T19:29:46.222Z,67.00
2019-02-26T19:32:52.758Z,66.43
2019-02-26T19:35:59.827Z,68.56
2019-02-26T19:39:08.244Z,68.33
2019-02-26T19:42:17.832Z,67.16
2019-02-26T19:45:24.160Z,67.58
2019-02-26T19:48:33.901Z,68.78
2019-02-26T19:51:39.667Z,70.88
2019-02-26T19:54:46.772Z,69.11
2019-02-26T19:57:54.305Z,68.48
2019-02-26T20:01:01.326Z,70.21
2019-02-26T20:04:09.202Z,68.11
2019-02-26T20:07:15.766Z,67.51
2019-02-26T20:10:22.145Z,70.35
2019-02-26T20:13:33.644Z,69.06
2019-02-26T20:16:38.552Z,68.65
2019-02-26T20:19:45.668Z,70.58
2019-02-26T20:22:52.356Z,72.17
2019-02-26T20:25:59.435Z,70.86
2019-02-26T20:29:07.785Z,70.78
2019-02-26T20:32:14.788Z,72.29
2019-02-26T20:35:21.973Z,71.22
2019-02-26T20:38:32.309Z,69.74
2019-02-26T20:41:38.782Z,70.73
2019-02-26T20:44:46.138Z,72.05
2019-02-26T20:47:53.062Z,70.63
2019-02-26T20:50:59.548Z,70.07
2019-02-26T20:54:06.919Z,71.47
2019-02-26T20:57:14.557Z,71.53
2019-02-26T21:00:24.901Z,71.67
2019-02-26T21:03:30.385Z,73.51
2019-02-26T21:06:39.206Z,71.48
2019-02-26T21:09:46.080Z,71.09
2019-02-26T21:12:53.736Z,74.13
2019-02-26T21:16:01.067Z,71.66
2019-02-26T21:19:08.736Z,71.56
2019-02-26T21:22:15.446Z,71.09
2019-02-26T21:25:22.661Z,71.80
2019-02-26T21:28:33.540Z,73.62
2019-02-26T21:31:39.650Z,72.62
2019-02-26T21:34:51.256Z,72.95
2019-02-26T21:37:58.279Z,72.93
2019-02-26T21:41:05.339Z,73.91
2019-02-26T21:44:12.165Z,72.10
2019-02-26T21:47:20.250Z,72.87
2019-02-26T21:50:27.317Z,73.13
2019-02-26T21:53:33.925Z,72.18
2019-02-26T21:56:40.401Z,72.79
2019-02-26T21:59:50.213Z,72.95
2019-02-26T22:02:56.038Z,72.41
2019-02-26T22:06:05.549Z,71.82
2019-02-26T22:09:11.343Z,72.25
2019-02-26T22:12:18.634Z,71.99
2019-02-26T22:15:25.183Z,73.20
2019-02-26T22:18:34.244Z,74.49
2019-02-26T22:21:51.796Z,74.76
2019-02-26T22:24:57.316Z,73.08
2019-02-26T22:28:08.808Z,73.24
2019-02-26T22:31:15.743Z,74.07
2019-02-26T22:34:21.992Z,75.70
2019-02-26T22:37:28.826Z,76.00
2019-02-26T22:40:35.322Z,75.00
2019-02-26T22:43:44.807Z,74.15
2019-02-26T22:46:50.424Z,75.36
2019-02-26T22:49:58.337Z,76.60
2019-02-26T22:53:05.203Z,75.24
2019-02-26T22:56:12.279Z,73.83
2019-02-26T22:59:18.681Z,73.24
2019-02-26T23:02:25.814Z,72.94
2019-02-26T23:05:32.429Z,73.27
2019-02-26T23:08:44.554Z,74.77
2019-02-26T23:11:49.614Z,74.60
2019-02-26T23:14:56.475Z,73.18
2019-02-26T23:18:03.111Z,72.59
2019-02-26T23:21:15.480Z,72.58
2019-02-26T23:24:20.009Z,72.83
2019-02-26T23:27:27.403Z,74.72
2019-02-26T23:30:34.558Z,75.66
2019-02-26T23:33:41.387Z,76.79
2019-02-26T23:36:48.963Z,76.04
2019-02-26T23:39:56.086Z,75.29
2019-02-26T23:43:04.097Z,74.59
2019-02-26T23:46:10.695Z,73.95
2019-02-26T23:49:17.578Z,74.37
2019-02-26T23:52:24.896Z,76.46
2019-02-26T23:55:33.107Z,75.62
2019-02-26T23:58:40.403Z,74.89
